Terminal Aerodrome Forecast
Issued by NWS

Home | Current Version | Previous Version | Text Only | Print | Product List | Glossary On
Versions: 1 2 3 4 5 6 7 8 9 10 11 12 13 14
000
FTUS46 KMTR 301500 AAB
TAFOAK
TAF AMD
KOAK 301500Z 3015/3118 30004KT P6SM FEW010 BKN200
     FM302000 28014KT P6SM SCT200
     FM310300 29009KT P6SM SCT200=

USA.gov is the U.S. government's official web portal to all federal, state and local government web resources and services.